createdAt,value
2018-03-30T00:00:51.906Z,15.57
2018-03-30T00:03:19.027Z,16.73
2018-03-30T00:05:46.079Z,14.57
2018-03-30T00:08:13.234Z,16.07
2018-03-30T00:10:40.447Z,16.03
2018-03-30T00:15:47.347Z,18.95
2018-03-30T00:18:14.408Z,16.37
2018-03-30T00:20:41.476Z,16.07
2018-03-30T00:23:08.592Z,15.63
2018-03-30T00:25:35.655Z,16.57
2018-03-30T00:28:03.536Z,15.23
2018-03-30T00:30:31.610Z,17.37
2018-03-30T00:32:59.399Z,16.67
2018-03-30T00:35:26.454Z,14.40
2018-03-30T00:40:34.665Z,19.52
2018-03-30T00:43:02.600Z,15.77
2018-03-30T00:45:29.654Z,16.20
2018-03-30T00:47:56.795Z,17.13
2018-03-30T00:50:24.024Z,16.77
2018-03-30T00:52:51.081Z,17.27
2018-03-30T00:55:18.132Z,17.43
2018-03-30T00:57:46.166Z,15.20
2018-03-30T01:00:14.178Z,14.33
2018-03-30T01:02:42.166Z,13.93
2018-03-30T01:05:09.253Z,14.53
2018-03-30T01:07:37.280Z,14.33
2018-03-30T01:10:04.332Z,14.50
2018-03-30T01:12:31.437Z,15.37
2018-03-30T01:14:59.331Z,15.50
2018-03-30T01:17:26.421Z,17.40
2018-03-30T01:19:53.510Z,18.10
2018-03-30T01:22:21.393Z,17.57
2018-03-30T01:24:48.452Z,18.00
2018-03-30T01:27:16.539Z,18.70
2018-03-30T01:29:43.592Z,19.47
2018-03-30T01:32:10.638Z,18.73
2018-03-30T01:34:39.569Z,19.67
2018-03-30T01:37:06.628Z,18.37
2018-03-30T01:39:35.853Z,19.23
2018-03-30T01:42:03.882Z,18.60
2018-03-30T01:44:31.807Z,18.50
2018-03-30T01:46:58.867Z,19.00
2018-03-30T01:49:25.961Z,18.03
2018-03-30T01:51:53.105Z,17.10
2018-03-30T01:54:20.158Z,17.13
2018-03-30T01:56:48.119Z,16.77
2018-03-30T01:59:15.186Z,14.93
2018-03-30T02:01:42.638Z,15.43
2018-03-30T02:06:50.211Z,21.98
2018-03-30T02:09:18.250Z,21.47
2018-03-30T02:11:46.234Z,18.97
2018-03-30T02:14:13.277Z,18.30
2018-03-30T02:16:41.508Z,19.27
2018-03-30T02:19:08.550Z,18.87
2018-03-30T02:21:35.597Z,18.33
2018-03-30T02:24:03.632Z,20.50
2018-03-30T02:26:30.680Z,20.53
2018-03-30T02:28:57.736Z,20.40
2018-03-30T02:31:24.848Z,21.00
2018-03-30T02:33:51.887Z,21.00
2018-03-30T02:36:19.775Z,21.20
2018-03-30T02:38:46.854Z,23.13
2018-03-30T02:41:14.876Z,21.40
2018-03-30T02:43:41.923Z,20.83
2018-03-30T02:46:09.013Z,20.97
2018-03-30T02:48:36.061Z,23.33
2018-03-30T02:51:03.937Z,21.20
2018-03-30T02:53:31.060Z,22.23
2018-03-30T02:55:58.117Z,23.67
2018-03-30T02:58:25.170Z,22.87
2018-03-30T03:00:52.232Z,23.97
2018-03-30T03:03:19.276Z,20.40
2018-03-30T03:05:46.316Z,19.70
2018-03-30T03:08:13.401Z,21.50
2018-03-30T03:10:40.440Z,21.23
2018-03-30T03:13:07.510Z,21.03
2018-03-30T03:15:34.605Z,22.53
2018-03-30T03:18:01.648Z,22.23
2018-03-30T03:20:28.703Z,22.10
2018-03-30T03:22:55.811Z,22.37
2018-03-30T03:25:22.881Z,24.30
2018-03-30T03:30:29.413Z,30.10
2018-03-30T03:32:57.399Z,26.10
2018-03-30T03:35:24.486Z,25.40
2018-03-30T03:37:51.557Z,25.17
2018-03-30T03:40:18.607Z,24.77
2018-03-30T03:42:45.661Z,25.00
2018-03-30T03:45:12.729Z,24.63
2018-03-30T03:47:40.606Z,21.90
2018-03-30T03:50:07.658Z,22.13
2018-03-30T03:52:36.622Z,21.60
2018-03-30T03:55:03.662Z,20.00
2018-03-30T03:57:30.708Z,19.73
2018-03-30T03:59:57.790Z,21.47
2018-03-30T04:02:24.844Z,21.43
2018-03-30T04:04:52.020Z,20.27
2018-03-30T04:07:19.124Z,22.43
2018-03-30T04:09:46.170Z,23.10
2018-03-30T04:12:14.146Z,22.13
2018-03-30T04:14:41.243Z,20.30
2018-03-30T04:17:08.292Z,21.67
2018-03-30T04:19:35.346Z,23.03
2018-03-30T04:22:04.223Z,22.27
2018-03-30T04:24:31.281Z,23.37
2018-03-30T04:26:58.349Z,23.73
2018-03-30T04:29:25.428Z,23.17
2018-03-30T04:31:52.465Z,23.27
2018-03-30T04:34:20.366Z,23.83
2018-03-30T04:36:48.405Z,24.97
2018-03-30T04:39:15.451Z,24.70
2018-03-30T04:41:42.571Z,25.40
2018-03-30T04:44:12.684Z,25.67
2018-03-30T04:46:39.720Z,25.90
2018-03-30T04:49:06.763Z,26.07
2018-03-30T04:54:14.326Z,35.75
2018-03-30T04:56:42.352Z,27.47
2018-03-30T04:59:09.403Z,26.47
2018-03-30T05:01:36.795Z,26.10
2018-03-30T05:04:04.642Z,23.83
2018-03-30T05:06:32.518Z,24.07
2018-03-30T05:08:59.650Z,25.97
2018-03-30T05:11:26.719Z,27.50
2018-03-30T05:13:53.759Z,27.53
2018-03-30T05:16:23.090Z,27.37
2018-03-30T05:18:50.176Z,27.07
2018-03-30T05:21:18.187Z,27.93
2018-03-30T05:23:45.235Z,27.37
2018-03-30T05:26:12.294Z,26.60
2018-03-30T05:28:40.286Z,27.00
2018-03-30T05:31:07.323Z,27.43
2018-03-30T05:33:35.344Z,25.53
2018-03-30T05:36:03.331Z,27.23
2018-03-30T05:38:31.621Z,26.40
2018-03-30T05:40:59.680Z,25.37
2018-03-30T05:43:27.652Z,26.60
2018-03-30T05:45:54.694Z,26.63
2018-03-30T05:48:21.821Z,25.63
2018-03-30T05:50:48.872Z,24.97
2018-03-30T05:53:16.013Z,25.00
2018-03-30T05:55:44.166Z,27.27
2018-03-30T05:58:11.215Z,26.07
2018-03-30T06:00:38.279Z,23.37
2018-03-30T06:03:05.384Z,20.97
2018-03-30T06:05:32.432Z,16.23
2018-03-30T06:07:59.468Z,14.07
2018-03-30T06:10:26.577Z,12.77
2018-03-30T06:12:53.632Z,14.03
2018-03-30T06:17:59.190Z,17.27
2018-03-30T06:20:26.303Z,14.00
2018-03-30T06:22:54.166Z,12.50
2018-03-30T06:25:21.252Z,12.87
2018-03-30T06:27:48.334Z,11.83
2018-03-30T06:30:15.384Z,11.67
2018-03-30T06:32:42.474Z,12.13
2018-03-30T06:35:09.512Z,11.13
2018-03-30T06:37:37.501Z,12.27
2018-03-30T06:40:04.576Z,13.97
2018-03-30T06:42:32.591Z,13.10
2018-03-30T06:44:59.638Z,11.97
2018-03-30T06:47:26.804Z,11.53
2018-03-30T06:49:54.017Z,11.30
2018-03-30T06:52:22.542Z,11.83
2018-03-30T06:54:49.617Z,11.43
2018-03-30T06:57:20.435Z,12.67
2018-03-30T06:59:47.471Z,11.73
2018-03-30T07:02:14.562Z,13.37
2018-03-30T07:04:41.623Z,14.50
2018-03-30T07:07:09.033Z,15.20
2018-03-30T07:09:37.059Z,15.07
2018-03-30T07:12:04.109Z,14.00
2018-03-30T07:14:31.156Z,13.50
2018-03-30T07:16:59.160Z,14.00
2018-03-30T07:19:26.198Z,13.43
2018-03-30T07:21:54.185Z,12.83
2018-03-30T07:24:21.268Z,12.37
2018-03-30T07:26:49.214Z,13.20
2018-03-30T07:29:16.272Z,13.43
2018-03-30T07:31:43.323Z,13.27
2018-03-30T07:34:12.489Z,11.87
2018-03-30T07:36:37.428Z,12.07
2018-03-30T07:41:46.584Z,14.30
2018-03-30T07:44:13.653Z,12.10
2018-03-30T07:46:40.718Z,11.30
2018-03-30T07:49:07.738Z,11.40
2018-03-30T07:51:34.821Z,11.50
2018-03-30T07:54:02.804Z,10.43
2018-03-30T07:56:29.840Z,9.53
2018-03-30T07:58:56.922Z,10.40
2018-03-30T08:01:23.969Z,10.13
2018-03-30T08:03:51.032Z,8.33
2018-03-30T08:06:18.099Z,4.60
2018-03-30T08:08:45.169Z,4.87
2018-03-30T08:11:14.476Z,4.33
2018-03-30T08:13:44.429Z,5.17
2018-03-30T08:16:11.581Z,5.17
2018-03-30T08:18:40.944Z,3.40
2018-03-30T08:21:09.004Z,3.40
2018-03-30T08:23:36.954Z,2.67
2018-03-30T08:26:04.954Z,3.33
2018-03-30T08:28:32.041Z,3.10
2018-03-30T08:30:59.895Z,2.90
2018-03-30T08:33:27.015Z,3.57
2018-03-30T08:35:55.235Z,3.07
2018-03-30T08:38:22.260Z,3.67
2018-03-30T08:40:49.489Z,3.20
2018-03-30T08:43:16.556Z,3.40
2018-03-30T08:45:43.704Z,3.67
2018-03-30T08:48:10.743Z,4.57
2018-03-30T08:50:37.829Z,3.33
2018-03-30T08:53:04.914Z,3.73
2018-03-30T08:55:32.915Z,3.37
2018-03-30T08:58:00.101Z,3.40
2018-03-30T09:00:27.137Z,3.90
2018-03-30T09:02:55.128Z,2.70
2018-03-30T09:08:00.694Z,3.47
2018-03-30T09:10:28.704Z,2.60
2018-03-30T09:12:56.677Z,2.33
2018-03-30T09:15:24.725Z,2.90
2018-03-30T09:17:51.803Z,3.40
2018-03-30T09:20:18.848Z,2.87
2018-03-30T09:22:46.707Z,2.83
2018-03-30T09:25:13.761Z,2.23
2018-03-30T09:27:40.921Z,0.90
2018-03-30T09:30:08.485Z,1.10
2018-03-30T09:32:36.403Z,2.20
2018-03-30T09:35:03.433Z,2.27
2018-03-30T09:37:31.304Z,3.30
2018-03-30T09:39:58.368Z,3.87
2018-03-30T09:42:26.350Z,6.37
2018-03-30T09:44:54.349Z,4.30
2018-03-30T09:47:22.353Z,5.33
2018-03-30T09:49:50.352Z,4.47
2018-03-30T09:52:18.333Z,5.80
2018-03-30T09:54:46.396Z,6.03
2018-03-30T09:57:13.443Z,4.90
2018-03-30T10:02:21.701Z,6.60
2018-03-30T10:07:28.697Z,6.20
2018-03-30T10:09:55.758Z,4.60
2018-03-30T10:12:23.761Z,5.60
2018-03-30T10:14:50.836Z,5.43
2018-03-30T10:17:17.882Z,4.17
2018-03-30T10:19:46.779Z,5.03
2018-03-30T10:22:13.861Z,5.03
2018-03-30T10:24:45.823Z,5.53
2018-03-30T10:27:09.736Z,4.63
2018-03-30T10:29:36.798Z,5.93
2018-03-30T10:32:03.930Z,5.07
2018-03-30T10:34:31.773Z,5.80
2018-03-30T10:36:58.882Z,6.17
2018-03-30T10:39:25.946Z,4.70
2018-03-30T10:41:52.996Z,5.33
2018-03-30T10:44:20.087Z,6.53
2018-03-30T10:46:47.136Z,5.87
2018-03-30T10:49:14.267Z,5.93
2018-03-30T10:51:41.352Z,6.03
2018-03-30T10:54:08.404Z,5.93
2018-03-30T10:56:36.386Z,5.90
2018-03-30T10:59:03.517Z,5.30
2018-03-30T11:01:31.414Z,6.37
2018-03-30T11:03:58.453Z,6.43
2018-03-30T11:06:26.492Z,5.70
2018-03-30T11:08:54.476Z,4.73
2018-03-30T11:11:21.560Z,4.40
2018-03-30T11:13:48.664Z,5.37
2018-03-30T11:16:15.745Z,5.93
2018-03-30T11:18:42.786Z,4.93
2018-03-30T11:21:10.284Z,5.33
2018-03-30T11:23:37.458Z,3.33
2018-03-30T11:28:43.847Z,1.10
2018-03-30T11:31:11.734Z,1.13
2018-03-30T11:33:39.731Z,1.07
2018-03-30T11:36:07.848Z,1.30
2018-03-30T11:38:35.723Z,1.07
2018-03-30T11:41:02.772Z,0.87
2018-03-30T11:43:29.846Z,1.00
2018-03-30T11:45:57.834Z,0.80
2018-03-30T11:48:25.768Z,1.13
2018-03-30T11:50:52.922Z,0.60
2018-03-30T11:53:19.984Z,0.90
2018-03-30T11:55:47.832Z,0.80
2018-03-30T11:58:14.984Z,1.10
2018-03-30T12:00:42.051Z,0.73
2018-03-30T12:03:10.083Z,0.70
2018-03-30T12:05:38.178Z,0.67
2018-03-30T12:08:05.254Z,1.70
2018-03-30T12:10:32.311Z,0.67
2018-03-30T12:12:59.558Z,0.70
2018-03-30T12:15:26.646Z,0.70
2018-03-30T12:17:54.559Z,0.50
2018-03-30T12:20:21.705Z,0.73
2018-03-30T12:22:48.779Z,0.40
2018-03-30T12:25:15.885Z,0.67
2018-03-30T12:27:43.900Z,0.60
2018-03-30T12:30:10.968Z,0.40
2018-03-30T12:32:38.088Z,0.50
2018-03-30T12:35:05.180Z,0.27
2018-03-30T12:37:33.186Z,0.60
2018-03-30T12:40:00.252Z,0.30
2018-03-30T12:42:27.405Z,0.60
2018-03-30T12:44:54.490Z,0.40
2018-03-30T12:50:00.285Z,0.60
2018-03-30T12:52:30.241Z,0.60
2018-03-30T12:54:55.427Z,0.30
2018-03-30T12:57:22.658Z,0.30
2018-03-30T12:59:49.735Z,0.20
2018-03-30T13:02:16.820Z,0.40
2018-03-30T13:04:44.742Z,0.60
2018-03-30T13:07:11.806Z,0.50
2018-03-30T13:09:38.932Z,0.60
2018-03-30T13:12:06.134Z,0.60
2018-03-30T13:14:34.029Z,0.40
2018-03-30T13:17:01.103Z,0.50
2018-03-30T13:19:28.276Z,0.33
2018-03-30T13:21:56.145Z,0.33
2018-03-30T13:24:23.218Z,0.40
2018-03-30T13:26:51.228Z,0.40
2018-03-30T13:29:18.304Z,0.57
2018-03-30T13:31:46.118Z,0.33
2018-03-30T13:34:13.266Z,0.40
2018-03-30T13:36:40.330Z,0.40
2018-03-30T13:39:07.428Z,0.30
2018-03-30T13:41:34.567Z,0.50
2018-03-30T13:44:01.628Z,0.50
2018-03-30T13:46:29.658Z,0.50
2018-03-30T13:48:57.740Z,0.50
2018-03-30T13:54:05.577Z,0.40
2018-03-30T13:59:17.346Z,0.40
2018-03-30T14:04:29.556Z,0.30
2018-03-30T14:09:49.046Z,0.40
2018-03-30T14:12:21.061Z,0.37
2018-03-30T14:14:48.183Z,0.50
2018-03-30T14:22:50.267Z,0.35
2018-03-30T14:27:57.564Z,0.30
2018-03-30T14:30:25.618Z,0.30
2018-03-30T14:32:55.510Z,0.30
2018-03-30T14:38:14.340Z,0.37
2018-03-30T14:40:41.507Z,0.30
2018-03-30T14:43:09.386Z,0.40
2018-03-30T14:45:37.389Z,0.40
2018-03-30T14:48:04.557Z,0.73
2018-03-30T15:03:57.391Z,0.60
2018-03-30T15:14:29.789Z,1.35
2018-03-30T15:19:44.881Z,0.90
2018-03-30T15:27:41.056Z,0.80
2018-03-30T15:30:14.945Z,0.73
2018-03-30T15:38:13.024Z,0.70
2018-03-30T15:40:41.137Z,0.50
2018-03-30T15:48:33.340Z,0.60
2018-03-30T15:53:39.068Z,0.60
2018-03-30T15:56:07.169Z,0.60
2018-03-30T15:58:34.229Z,0.80
2018-03-30T16:01:01.299Z,0.67
2018-03-30T16:03:29.318Z,0.50
2018-03-30T16:05:57.217Z,0.70
2018-03-30T16:08:24.280Z,0.50
2018-03-30T16:10:52.387Z,0.60
2018-03-30T16:13:19.502Z,0.50
2018-03-30T16:15:47.364Z,0.60
2018-03-30T16:18:14.496Z,0.67
2018-03-30T16:20:41.976Z,0.40
2018-03-30T16:23:08.551Z,0.57
2018-03-30T16:25:35.196Z,0.40
2018-03-30T16:28:03.530Z,0.50
2018-03-30T16:30:30.124Z,0.50
2018-03-30T16:32:57.630Z,0.60
2018-03-30T16:35:24.239Z,0.40
2018-03-30T16:37:51.772Z,0.50
2018-03-30T16:40:18.449Z,0.50
2018-03-30T16:42:45.500Z,0.60
2018-03-30T16:45:12.087Z,0.50
2018-03-30T16:47:39.694Z,0.30
2018-03-30T16:50:09.214Z,0.40
2018-03-30T16:52:33.831Z,0.40
2018-03-30T16:55:00.468Z,0.43
2018-03-30T16:57:27.449Z,0.50
2018-03-30T16:59:55.201Z,0.40
2018-03-30T17:05:00.834Z,0.40
2018-03-30T17:07:27.498Z,1.20
2018-03-30T17:09:54.918Z,0.50
2018-03-30T17:12:21.493Z,0.30
2018-03-30T17:14:48.995Z,0.50
2018-03-30T17:17:18.320Z,0.33
2018-03-30T17:19:45.177Z,0.93
2018-03-30T17:22:11.814Z,0.33
2018-03-30T17:24:38.372Z,0.67
2018-03-30T17:27:06.226Z,0.60
2018-03-30T17:29:33.310Z,0.50
2018-03-30T17:31:59.910Z,0.60
2018-03-30T17:34:27.321Z,0.67
2018-03-30T17:36:53.956Z,0.90
2018-03-30T17:39:21.425Z,0.67
2018-03-30T17:41:48.098Z,0.80
2018-03-30T17:44:15.107Z,0.70
2018-03-30T17:46:42.668Z,0.80
2018-03-30T17:49:10.200Z,0.60
2018-03-30T17:51:37.006Z,0.60
2018-03-30T17:54:03.561Z,0.70
2018-03-30T17:56:31.121Z,0.70
2018-03-30T17:58:58.519Z,0.80
2018-03-30T18:01:26.115Z,0.80
2018-03-30T18:03:53.673Z,0.73
2018-03-30T18:06:20.675Z,1.03
2018-03-30T18:08:47.229Z,0.87
2018-03-30T18:11:13.804Z,0.63
2018-03-30T18:13:40.471Z,0.70
2018-03-30T18:16:08.094Z,0.70
2018-03-30T18:18:34.724Z,0.70
2018-03-30T18:21:01.715Z,0.90
2018-03-30T18:23:28.292Z,0.80
2018-03-30T18:28:34.062Z,1.20
2018-03-30T18:31:01.017Z,0.80
2018-03-30T18:33:27.635Z,0.70
2018-03-30T18:35:55.288Z,1.10
2018-03-30T18:38:21.872Z,0.90
2018-03-30T18:40:48.817Z,0.80
2018-03-30T18:43:15.493Z,0.80
2018-03-30T18:45:42.118Z,0.67
2018-03-30T18:48:08.694Z,0.60
2018-03-30T18:50:35.342Z,0.70
2018-03-30T18:53:01.972Z,0.60
2018-03-30T18:55:28.596Z,0.80
2018-03-30T18:57:55.258Z,0.93
2018-03-30T19:00:21.834Z,1.00
2018-03-30T19:02:48.420Z,0.90
2018-03-30T19:05:15.083Z,1.10
2018-03-30T19:07:41.658Z,1.60
2018-03-30T19:10:09.052Z,1.60
2018-03-30T19:12:35.697Z,1.47
2018-03-30T19:15:03.099Z,1.13
2018-03-30T19:17:29.671Z,1.50
2018-03-30T19:19:57.195Z,1.23
2018-03-30T19:22:23.786Z,1.80
2018-03-30T19:24:50.359Z,1.57
2018-03-30T19:27:17.068Z,1.40
2018-03-30T19:29:43.670Z,1.10
2018-03-30T19:32:10.264Z,0.90
2018-03-30T19:34:38.403Z,0.63
2018-03-30T19:37:06.053Z,1.10
2018-03-30T19:39:32.611Z,0.83
2018-03-30T19:41:59.280Z,0.70
2018-03-30T19:44:26.852Z,1.30
2018-03-30T19:46:54.394Z,0.87
2018-03-30T19:49:21.040Z,0.70
2018-03-30T19:51:49.010Z,0.83
2018-03-30T19:56:54.029Z,0.90
2018-03-30T19:59:20.628Z,0.87
2018-03-30T20:01:47.189Z,1.00
2018-03-30T20:04:14.665Z,0.80
2018-03-30T20:06:41.233Z,0.80
2018-03-30T20:09:08.166Z,0.90
2018-03-30T20:11:34.867Z,1.10
2018-03-30T20:14:01.441Z,1.00
2018-03-30T20:16:28.402Z,0.70
2018-03-30T20:18:55.075Z,0.60
2018-03-30T20:21:22.161Z,0.80
2018-03-30T20:23:48.786Z,0.73
2018-03-30T20:26:15.455Z,0.70
2018-03-30T20:28:43.032Z,0.60
2018-03-30T20:31:09.610Z,0.60
2018-03-30T20:33:36.271Z,0.60
2018-03-30T20:36:03.143Z,0.83
2018-03-30T20:38:29.722Z,0.53
2018-03-30T20:40:56.368Z,0.60
2018-03-30T20:43:22.921Z,0.60
2018-03-30T20:45:50.227Z,1.00
2018-03-30T20:48:16.895Z,0.60
2018-03-30T20:50:43.887Z,0.80
2018-03-30T20:53:11.208Z,0.60
2018-03-30T20:55:38.187Z,0.90
2018-03-30T20:58:04.795Z,0.67
2018-03-30T21:00:31.369Z,0.60
2018-03-30T21:02:58.975Z,0.70
2018-03-30T21:05:25.536Z,0.53
2018-03-30T21:07:52.157Z,0.30
2018-03-30T21:10:18.786Z,0.50
2018-03-30T21:12:45.693Z,0.40
2018-03-30T21:17:54.285Z,0.68
2018-03-30T21:20:20.855Z,0.40
2018-03-30T21:22:48.407Z,0.33
2018-03-30T21:25:15.025Z,0.30
2018-03-30T21:27:41.631Z,0.30
2018-03-30T21:30:08.218Z,0.40
2018-03-30T21:32:35.692Z,0.40
2018-03-30T21:35:02.271Z,0.37
2018-03-30T21:37:30.139Z,0.23
2018-03-30T21:39:57.821Z,0.30
2018-03-30T21:42:24.439Z,0.30
2018-03-30T21:44:51.026Z,0.27
2018-03-30T21:47:17.684Z,0.20
2018-03-30T21:49:45.032Z,0.30
2018-03-30T21:52:12.382Z,0.23
2018-03-30T21:54:39.077Z,0.20
2018-03-30T21:57:05.644Z,0.17
2018-03-30T21:59:32.237Z,0.17
2018-03-30T22:01:58.879Z,0.20
2018-03-30T22:04:28.886Z,0.17
2018-03-30T22:06:55.453Z,0.30
2018-03-30T22:09:22.116Z,0.70
2018-03-30T22:11:48.690Z,0.20
2018-03-30T22:14:15.265Z,0.40
2018-03-30T22:16:45.164Z,0.23
2018-03-30T22:19:12.100Z,0.27
2018-03-30T22:21:39.658Z,0.30
2018-03-30T22:24:06.282Z,0.43
2018-03-30T22:26:32.884Z,0.20
2018-03-30T22:28:59.509Z,0.30
2018-03-30T22:31:29.058Z,0.30
2018-03-30T22:33:55.643Z,0.80
2018-03-30T22:36:22.218Z,0.30
2018-03-30T22:38:48.899Z,0.50
2018-03-30T22:41:17.034Z,0.63
2018-03-30T22:46:21.694Z,0.50
2018-03-30T22:48:49.156Z,0.77
2018-03-30T22:51:15.726Z,0.67
2018-03-30T22:53:43.312Z,0.73
2018-03-30T22:56:11.619Z,0.60
2018-03-30T22:58:39.066Z,0.67
2018-03-30T23:01:10.155Z,0.50
2018-03-30T23:03:37.685Z,0.67
2018-03-30T23:06:04.272Z,0.60
2018-03-30T23:08:31.274Z,0.60
2018-03-30T23:10:57.848Z,0.70
2018-03-30T23:13:24.424Z,0.77
2018-03-30T23:15:51.050Z,0.60
2018-03-30T23:18:20.418Z,0.70
2018-03-30T23:20:47.036Z,0.50
2018-03-30T23:23:13.685Z,0.70
2018-03-30T23:25:41.977Z,0.40
2018-03-30T23:28:08.825Z,0.70
2018-03-30T23:30:35.514Z,0.63
2018-03-30T23:33:02.981Z,0.70
2018-03-30T23:35:29.579Z,0.60
2018-03-30T23:37:56.192Z,0.80
2018-03-30T23:40:23.623Z,0.70
2018-03-30T23:42:50.184Z,0.50
2018-03-30T23:45:16.869Z,0.50
2018-03-30T23:47:43.711Z,0.60
2018-03-30T23:50:10.286Z,0.63
2018-03-30T23:52:36.904Z,0.97
2018-03-30T23:55:03.478Z,0.50
2018-03-30T23:57:31.543Z,0.93
2018-03-30T23:59:58.187Z,0.50
